Current Weather

Marion Municipal Ap

Marion Municipal Ap, Indiana (KMZZ)

Report from: Thursday, May 19, 2022 3:15 PM EDT
Current time: Thursday, May 19, 2022 3:35 PM EDT

Nearby weather
Weather history
Weather forecast

Temperature25.6°C (78.1°F)
Dew point18.0°C (64.4°F)
Winds 10 kts (5.1 m/s, 11.5 mph) South (190°)
Visibility7 mi. (11.3 km)
Clouds Sky clear
Altimeter29.72 in.Hg (1006 mB)
Relative humidity63 %
Density altitude1,738 ft. (530 m)
Remarks Fully automated report
Automated weather observing station with precipitation discriminator
Flight conditions Visual Meteorological Conditions
Raw dataKMZZ 191915Z AUTO 19010KT 7SM CLR 26/18 A2972 RMK AO2 T02560180
An error has occurred. This application may no longer respond until reloaded. Reload 🗙